Time;durP1;ratioP1;P1;durP2;ratioP2;P2;SDS_P1;SDS_P2;PMS_P1;PMS_P2;Temp;Humidity;BMP_temperature;BMP_pressure;BME280_temperature;BME280_humidity;BME280_pressure;Samples;Min_cycle;Max_cycle;Signal;HPM_P1;HPM_P2
2022/11/21 00:00:17;;;;;;;26.98;16.90;;;1.00;99.90;;;;;;5039505;28;20056;-84
2022/11/21 00:02:42;;;;;;;31.63;17.92;;;1.00;99.90;;;;;;5023934;28;20044;-85
2022/11/21 00:05:08;;;;;;;30.13;18.10;;;2.00;99.90;;;;;;5040310;28;20122;-85
2022/11/21 00:07:34;;;;;;;33.60;18.42;;;1.00;99.90;;;;;;5056931;28;20507;-85
2022/11/21 00:09:59;;;;;;;32.47;18.20;;;1.30;99.90;;;;;;5039369;28;20048;-86
2022/11/21 00:12:25;;;;;;;32.28;19.00;;;1.00;99.90;;;;;;5056797;28;20093;-85
2022/11/21 00:14:51;;;;;;;28.40;18.02;;;2.50;99.90;;;;;;5041828;28;20493;-81
2022/11/21 00:17:16;;;;;;;29.48;18.17;;;1.00;99.90;;;;;;5063503;28;20048;-82
2022/11/21 00:19:42;;;;;;;33.03;17.98;;;2.10;99.90;;;;;;5041285;28;20096;-85
2022/11/21 00:22:08;;;;;;;28.25;17.08;;;2.20;99.90;;;;;;5056890;28;20060;-85
2022/11/21 00:24:33;;;;;;;29.98;18.60;;;1.90;99.90;;;;;;5039308;28;20523;-84
2022/11/21 00:26:59;;;;;;;32.55;18.63;;;2.30;99.90;;;;;;5055039;28;20087;-86
2022/11/21 00:29:25;;;;;;;29.27;18.13;;;1.60;99.90;;;;;;5042122;28;20041;-85
2022/11/21 00:31:50;;;;;;;31.75;18.27;;;0.90;99.90;;;;;;5071674;28;20048;-85
2022/11/21 00:34:16;;;;;;;30.55;18.52;;;1.60;99.90;;;;;;5072207;28;20056;-84
2022/11/21 00:36:41;;;;;;;31.35;18.63;;;0.90;99.90;;;;;;5038666;28;20489;-85
2022/11/21 00:39:07;;;;;;;30.80;18.00;;;2.10;99.90;;;;;;5056104;28;20477;-84
2022/11/21 00:41:33;;;;;;;32.70;19.30;;;1.00;99.90;;;;;;5039875;28;20110;-84
2022/11/21 00:43:59;;;;;;;31.80;18.15;;;0.90;99.90;;;;;;5054468;28;20580;-85
2022/11/21 00:46:24;;;;;;;31.42;17.80;;;0.90;99.90;;;;;;5056418;28;20075;-86
2022/11/21 00:48:50;;;;;;;31.88;18.13;;;1.80;99.90;;;;;;5035754;28;20121;-85
2022/11/21 00:51:16;;;;;;;29.77;17.95;;;2.40;99.90;;;;;;5031244;28;20044;-85
2022/11/21 00:53:41;;;;;;;30.92;18.75;;;0.90;99.90;;;;;;5056030;28;20083;-85
2022/11/21 00:56:07;;;;;;;34.22;18.60;;;0.80;99.90;;;;;;5038957;28;20421;-85
2022/11/21 00:58:33;;;;;;;30.95;19.08;;;1.70;99.90;;;;;;5036732;28;20059;-85
2022/11/21 01:01:06;;;;;;;31.23;18.50;;;0.80;99.90;;;;;;5005516;28;20041;-86
2022/11/21 01:03:33;;;;;;;33.90;18.73;;;0.80;99.90;;;;;;5022348;28;20051;-85
2022/11/21 01:06:25;;;;;;;32.85;19.00;;;0.80;99.90;;;;;;5022728;28;20048;-85
2022/11/21 01:08:50;;;;;;;32.85;19.95;;;0.80;99.90;;;;;;5057281;28;20379;-85
2022/11/21 01:11:17;;;;;;;35.55;19.75;;;0.80;99.90;;;;;;5040731;28;20109;-83
2022/11/21 01:13:43;;;;;;;33.80;19.02;;;0.70;99.90;;;;;;5055851;28;20091;-84
2022/11/21 01:16:17;;;;;;;38.42;20.88;;;0.70;99.90;;;;;;5038501;28;20048;-84
2022/11/21 01:18:43;;;;;;;;;;;0.70;99.90;;;;;;5055642;28;20060;-85
2022/11/21 01:21:16;;;;;;;35.72;20.13;;;1.20;99.90;;;;;;5055023;28;20273;-85
2022/11/21 01:23:43;;;;;;;34.03;19.00;;;0.70;99.90;;;;;;5039500;28;20052;-85
2022/11/21 01:26:14;;;;;;;34.50;19.25;;;0.60;99.90;;;;;;5052515;28;20055;-85
2022/11/21 01:28:40;;;;;;;36.38;20.00;;;1.80;99.90;;;;;;5043621;28;20097;-82
2022/11/21 01:31:07;;;;;;;32.00;19.38;;;0.80;99.90;;;;;;5043718;28;20052;-85
2022/11/21 01:33:33;;;;;;;33.95;19.13;;;1.50;99.90;;;;;;5037156;28;20105;-86
2022/11/21 01:36:34;;;;;;;33.58;20.30;;;0.50;99.90;;;;;;5054185;28;20045;-85
2022/11/21 01:39:01;;;;;;;33.95;18.95;;;0.40;99.90;;;;;;4995278;28;20053;-84
2022/11/21 01:41:32;;;;;;;34.65;19.02;;;0.80;99.90;;;;;;5026056;28;20417;-86
2022/11/21 01:44:01;;;;;;;32.22;18.52;;;0.20;99.90;;;;;;5038168;28;20145;-85
2022/11/21 01:46:27;;;;;;;34.40;19.17;;;0.10;99.90;;;;;;5029284;28;20195;-86
2022/11/21 01:48:56;;;;;;;31.83;19.02;;;0.00;99.90;;;;;;5051422;28;20552;-85
2022/11/21 01:51:33;;;;;;;32.88;18.45;;;0.00;99.90;;;;;;5046633;28;20055;-85
2022/11/21 01:54:05;;;;;;;33.00;19.13;;;-0.10;99.90;;;;;;5022146;28;20056;-85
2022/11/21 01:56:34;;;;;;;36.50;19.77;;;-0.10;99.90;;;;;;5037675;28;20048;-85
2022/11/21 01:59:00;;;;;;;34.83;20.42;;;1.10;99.90;;;;;;5054477;28;20060;-86
2022/11/21 02:01:26;;;;;;;35.80;19.55;;;-0.30;99.90;;;;;;5021010;28;20044;-86
2022/11/21 02:03:51;;;;;;;34.65;19.65;;;0.30;99.90;;;;;;5021547;28;20094;-85
2022/11/21 02:06:17;;;;;;;35.63;20.77;;;0.20;99.90;;;;;;5020518;28;20057;-84
2022/11/21 02:08:43;;;;;;;35.88;20.88;;;-0.40;99.90;;;;;;5037458;28;20051;-84
2022/11/21 02:11:15;;;;;;;39.88;20.45;;;-0.40;99.90;;;;;;5025363;28;20123;-85
2022/11/21 02:13:40;;;;;;;36.05;20.85;;;-0.30;99.90;;;;;;5024046;28;20053;-85
2022/11/21 02:16:06;;;;;;;42.00;21.08;;;0.10;99.90;;;;;;5037724;28;20056;-85
2022/11/21 02:18:32;;;;;;;36.40;21.70;;;-0.50;99.90;;;;;;5054634;28;20086;-85
2022/11/21 02:21:08;;;;;;;37.88;21.42;;;0.40;99.90;;;;;;5040213;28;20072;-86
2022/11/21 02:24:02;;;;;;;37.35;20.40;;;-0.60;99.90;;;;;;5008224;28;20052;-85
2022/11/21 02:26:28;;;;;;;37.00;20.23;;;-0.60;99.90;;;;;;5022861;28;20051;-86
2022/11/21 02:28:54;;;;;;;40.58;21.77;;;-0.70;99.90;;;;;;5036789;28;20045;-86
2022/11/21 02:31:19;;;;;;;44.35;22.77;;;-0.70;99.90;;;;;;5053695;28;20087;-86
2022/11/21 02:33:45;;;;;;;41.75;21.50;;;0.30;99.90;;;;;;5037536;28;20186;-85
2022/11/21 02:36:45;;;;;;;43.10;21.98;;;-0.10;99.90;;;;;;5054901;28;20152;-84
2022/11/21 02:39:22;;;;;;;40.10;21.10;;;-0.70;99.90;;;;;;5007898;28;20048;-84
2022/11/21 02:42:01;;;;;;;40.10;20.08;;;-0.80;99.90;;;;;;5045459;28;20045;-83
2022/11/21 02:44:57;;;;;;;40.33;20.83;;;-0.70;99.90;;;;;;5045883;28;20071;-86
2022/11/21 02:47:23;;;;;;;41.35;21.67;;;0.90;99.90;;;;;;5020632;28;20091;-85
2022/11/21 02:49:55;;;;;;;39.60;21.70;;;-0.80;99.90;;;;;;5053430;28;20049;-86
2022/11/21 02:52:22;;;;;;;41.35;21.75;;;-0.80;99.90;;;;;;5021788;28;20080;-85
2022/11/21 02:54:47;;;;;;;39.50;22.00;;;0.60;99.90;;;;;;5038240;28;20052;-85
2022/11/21 02:57:13;;;;;;;36.28;20.65;;;-0.90;99.90;;;;;;5052544;28;20051;-86
2022/11/21 02:59:39;;;;;;;38.05;21.23;;;-0.80;99.90;;;;;;5053904;28;20078;-86
2022/11/21 03:02:05;;;;;;;40.00;22.45;;;-0.20;99.90;;;;;;5054531;28;20044;-86
2022/11/21 03:04:30;;;;;;;40.92;21.67;;;-0.90;99.90;;;;;;5072818;28;20032;-87
2022/11/21 03:06:56;;;;;;;40.95;21.05;;;-0.30;99.90;;;;;;5055381;28;20036;-85
2022/11/21 03:09:22;;;;;;;38.47;21.75;;;-1.00;99.90;;;;;;5041770;28;20052;-85
2022/11/21 03:11:47;;;;;;;38.53;20.95;;;-0.30;99.90;;;;;;5041282;28;20044;-86
2022/11/21 03:14:13;;;;;;;41.05;21.42;;;-1.00;99.90;;;;;;5059173;28;20048;-86
2022/11/21 03:16:38;;;;;;;38.65;21.63;;;-1.00;99.90;;;;;;5042410;28;20116;-87
2022/11/21 03:19:04;;;;;;;37.67;20.83;;;-1.00;99.90;;;;;;5025753;28;20113;-85
2022/11/21 03:21:30;;;;;;;39.33;21.02;;;-0.80;99.90;;;;;;5041953;28;20493;-87
2022/11/21 03:23:55;;;;;;;43.30;22.35;;;0.40;99.90;;;;;;5040726;28;20048;-86
2022/11/21 03:26:21;;;;;;;41.50;21.00;;;-1.00;99.90;;;;;;5040077;28;20044;-86
2022/11/21 03:28:47;;;;;;;37.63;21.48;;;0.50;99.90;;;;;;5023963;28;20060;-86
2022/11/21 03:31:12;;;;;;;40.30;21.33;;;-1.00;99.90;;;;;;5041020;28;20062;-86
2022/11/21 03:33:38;;;;;;;40.58;21.42;;;-1.00;99.90;;;;;;5058066;28;20036;-86
2022/11/21 03:36:04;;;;;;;40.00;23.23;;;-1.00;99.90;;;;;;5024117;28;20041;-87
2022/11/21 03:38:29;;;;;;;43.30;22.70;;;-1.00;99.90;;;;;;5041707;28;20094;-86
2022/11/21 03:40:55;;;;;;;38.50;21.38;;;0.00;99.90;;;;;;5039308;28;20048;-85
2022/11/21 03:43:20;;;;;;;35.15;19.08;;;0.10;99.90;;;;;;5067173;28;20060;-86
2022/11/21 03:45:46;;;;;;;40.70;21.45;;;-0.90;99.90;;;;;;5057215;28;20053;-85
2022/11/21 03:48:13;;;;;;;41.13;22.88;;;-0.90;99.90;;;;;;5057372;28;20036;-86
2022/11/21 03:50:43;;;;;;;40.20;21.95;;;-0.90;99.90;;;;;;5056904;28;20060;-86
2022/11/21 03:53:08;;;;;;;41.58;22.75;;;-1.00;99.90;;;;;;5058220;28;20044;-88
2022/11/21 03:55:34;;;;;;;42.42;22.02;;;-1.00;99.90;;;;;;5091634;28;20059;-83
2022/11/21 03:58:00;;;;;;;39.00;21.13;;;-1.00;99.90;;;;;;5034590;28;20044;-87
2022/11/21 04:00:25;;;;;;;44.97;22.80;;;-1.10;99.90;;;;;;5040321;28;20044;-86
2022/11/21 04:02:51;;;;;;;40.10;20.92;;;-1.10;99.90;;;;;;5039922;28;20045;-84
2022/11/21 04:05:16;;;;;;;37.47;21.27;;;-1.10;99.90;;;;;;5037004;28;20045;-87
2022/11/21 04:07:42;;;;;;;41.85;22.25;;;-1.20;99.90;;;;;;5036927;28;20048;-85
2022/11/21 04:10:08;;;;;;;40.30;22.60;;;-1.20;99.90;;;;;;5050358;28;20045;-86
2022/11/21 04:12:34;;;;;;;44.92;23.02;;;-1.20;99.90;;;;;;5031971;28;20127;-87
2022/11/21 04:14:59;;;;;;;43.47;22.65;;;-0.60;99.90;;;;;;5046412;28;20088;-86
2022/11/21 04:17:25;;;;;;;43.40;22.05;;;0.00;99.90;;;;;;5056663;28;20052;-87
2022/11/21 04:19:51;;;;;;;42.80;23.15;;;-1.30;99.90;;;;;;5055902;28;20044;-86
2022/11/21 04:22:16;;;;;;;42.25;22.38;;;-1.20;99.90;;;;;;5041697;28;20131;-87
2022/11/21 04:24:42;;;;;;;37.63;21.20;;;-1.30;99.90;;;;;;5062706;28;20106;-86
2022/11/21 04:27:08;;;;;;;44.20;23.85;;;-1.30;99.90;;;;;;5046517;28;20123;-87
2022/11/21 04:29:33;;;;;;;41.88;22.38;;;-0.60;99.90;;;;;;5062533;28;20496;-87
2022/11/21 04:31:59;;;;;;;42.35;22.60;;;-0.90;99.90;;;;;;5056227;28;20045;-86
2022/11/21 04:34:24;;;;;;;44.35;24.67;;;-1.30;99.90;;;;;;5040082;28;20045;-85
2022/11/21 04:36:50;;;;;;;47.22;22.83;;;-0.20;99.90;;;;;;5040381;28;20052;-87
2022/11/21 04:39:16;;;;;;;42.85;22.17;;;-1.20;99.90;;;;;;5056717;28;20041;-86
2022/11/21 04:41:41;;;;;;;43.70;23.13;;;-1.30;99.90;;;;;;5056358;28;20040;-85
2022/11/21 04:44:07;;;;;;;47.13;24.42;;;-1.20;99.90;;;;;;5040213;28;20053;-86
2022/11/21 04:46:33;;;;;;;47.40;23.58;;;-1.20;99.90;;;;;;5044990;28;20105;-88
2022/11/21 04:48:58;;;;;;;46.60;23.33;;;-0.90;99.90;;;;;;5058000;28;20511;-87
2022/11/21 04:51:24;;;;;;;46.53;23.70;;;-1.20;99.90;;;;;;5040605;28;20040;-87
2022/11/21 04:53:49;;;;;;;46.35;23.67;;;-1.20;99.90;;;;;;5057496;28;20040;-88
2022/11/21 04:56:15;;;;;;;47.08;23.75;;;0.00;99.90;;;;;;5056521;28;20502;-85
2022/11/21 04:58:43;;;;;;;46.15;23.60;;;-1.20;99.90;;;;;;5057211;28;20049;-87
2022/11/21 05:01:09;;;;;;;42.15;23.50;;;-1.20;99.90;;;;;;5041200;28;20052;-87
2022/11/21 05:03:35;;;;;;;46.33;23.67;;;-1.20;99.90;;;;;;5057263;28;20040;-87
2022/11/21 05:06:01;;;;;;;46.15;23.40;;;-1.20;99.90;;;;;;5060018;28;20477;-88
2022/11/21 05:08:26;;;;;;;47.55;24.20;;;-1.20;99.90;;;;;;5055884;28;20047;-84
2022/11/21 05:13:36;;;;;;;49.38;24.20;;;0.20;99.90;;;;;;5056496;28;20048;-88
2022/11/21 05:16:02;;;;;;;46.45;24.48;;;-1.30;99.90;;;;;;5040847;28;20095;-88
2022/11/21 05:18:27;;;;;;;51.30;25.60;;;-1.30;99.90;;;;;;5039924;28;20199;-86
2022/11/21 05:20:53;;;;;;;47.67;25.48;;;-1.30;99.90;;;;;;5056701;28;20063;-88
2022/11/21 05:23:19;;;;;;;45.15;23.80;;;0.10;99.90;;;;;;5056419;28;20395;-89
2022/11/21 05:25:44;;;;;;;46.50;24.67;;;-1.30;99.90;;;;;;5056286;28;20571;-88
2022/11/21 05:28:10;;;;;;;47.22;24.30;;;-1.30;99.90;;;;;;5057063;28;20056;-87
2022/11/21 05:30:36;;;;;;;50.85;24.15;;;-1.30;99.90;;;;;;5056539;28;20044;-89
2022/11/21 05:33:02;;;;;;;44.13;23.40;;;-1.20;99.90;;;;;;5057324;28;20071;-88
2022/11/21 05:35:28;;;;;;;44.30;23.33;;;-1.00;99.90;;;;;;5056226;28;20052;-89
2022/11/21 05:37:57;;;;;;;43.55;23.38;;;-1.00;99.90;;;;;;5057865;28;20047;-89
2022/11/21 05:40:23;;;;;;;46.20;23.75;;;0.00;99.90;;;;;;5041010;28;20368;-88
2022/11/21 05:45:33;;;;;;;49.63;24.67;;;-1.00;99.90;;;;;;5056897;28;20045;-88
2022/11/21 05:47:58;;;;;;;47.05;23.65;;;-1.30;99.90;;;;;;5041547;28;20040;-89
2022/11/21 05:50:24;;;;;;;47.17;25.25;;;-1.30;99.90;;;;;;5057663;28;20168;-88
2022/11/21 05:52:50;;;;;;;46.50;24.35;;;-1.40;99.90;;;;;;5040299;28;20389;-89
2022/11/21 05:55:15;;;;;;;50.83;25.27;;;-1.30;99.90;;;;;;5057934;28;20081;-90
2022/11/21 05:57:41;;;;;;;51.88;26.20;;;-1.30;99.90;;;;;;5073879;28;20197;-89
2022/11/21 06:00:07;;;;;;;52.00;25.92;;;-1.30;99.90;;;;;;5041003;28;20097;-89
2022/11/21 06:05:17;;;;;;;50.95;24.90;;;-1.00;99.90;;;;;;5057846;28;20044;-90
2022/11/21 06:07:43;;;;;;;54.80;26.52;;;-1.30;99.90;;;;;;5057266;28;20408;-90
2022/11/21 06:10:11;;;;;;;53.80;27.30;;;-1.00;99.90;;;;;;5057876;28;20047;-89
2022/11/21 06:12:37;;;;;;;51.08;24.23;;;-1.20;99.90;;;;;;5057292;28;20072;-89
2022/11/21 06:15:03;;;;;;;34.92;16.27;;;0.00;99.90;;;;;;5057609;28;20048;-90
2022/11/21 06:17:29;;;;;;;29.50;14.68;;;-1.00;99.90;;;;;;5057864;28;20051;-89
2022/11/21 06:19:54;;;;;;;47.80;22.35;;;-0.60;99.90;;;;;;5064461;28;20052;-89
2022/11/21 06:22:21;;;;;;;30.77;13.93;;;-0.70;99.90;;;;;;5074119;28;20029;-85
2022/11/21 06:24:47;;;;;;;43.85;23.88;;;-0.50;99.90;;;;;;5073220;28;20052;-89
2022/11/21 06:27:13;;;;;;;44.10;23.85;;;-0.80;99.90;;;;;;5039347;28;20040;-88
2022/11/21 06:29:38;;;;;;;44.15;22.60;;;-1.00;99.90;;;;;;5056679;28;20205;-88
2022/11/21 06:32:04;;;;;;;41.72;22.65;;;-1.10;99.90;;;;;;5056352;28;20139;-88
2022/11/21 06:34:30;;;;;;;45.65;23.33;;;-1.20;99.90;;;;;;5056542;28;20044;-89
2022/11/21 06:36:55;;;;;;;34.97;16.25;;;-1.30;99.90;;;;;;5055524;28;20049;-88
2022/11/21 06:39:21;;;;;;;31.23;14.93;;;-1.10;99.90;;;;;;5057134;28;20051;-88
2022/11/21 06:41:49;;;;;;;40.88;20.45;;;-0.90;99.90;;;;;;5039258;28;20576;-87
2022/11/21 06:44:17;;;;;;;38.58;20.83;;;-0.40;99.90;;;;;;5042691;28;20106;-88
2022/11/21 06:46:42;;;;;;;40.95;20.80;;;-1.20;99.90;;;;;;5045815;28;20052;-87
2022/11/21 06:49:08;;;;;;;48.65;24.40;;;-1.30;99.90;;;;;;5062548;28;20067;-88
2022/11/21 06:51:34;;;;;;;45.38;23.40;;;0.00;99.90;;;;;;5059836;28;20056;-86
2022/11/21 06:53:59;;;;;;;49.42;24.73;;;-1.50;99.90;;;;;;5059578;28;20051;-89
2022/11/21 06:56:26;;;;;;;44.75;23.58;;;-1.50;99.90;;;;;;5043000;28;20056;-87
2022/11/21 06:58:52;;;;;;;43.78;23.60;;;-1.50;99.90;;;;;;5042303;28;20048;-88
2022/11/21 07:01:18;;;;;;;43.60;23.90;;;-1.60;99.90;;;;;;5058891;28;20373;-87
2022/11/21 07:03:43;;;;;;;50.95;24.58;;;-0.40;99.90;;;;;;5041798;28;20060;-88
2022/11/21 07:06:10;;;;;;;46.28;23.13;;;-1.10;99.90;;;;;;5058544;28;20044;-87
2022/11/21 07:08:36;;;;;;;51.90;24.50;;;-1.70;99.90;;;;;;5059028;28;20404;-85
2022/11/21 07:11:03;;;;;;;50.35;24.52;;;-0.30;99.90;;;;;;5058652;28;20052;-88
2022/11/21 07:13:29;;;;;;;49.22;24.42;;;-1.70;99.90;;;;;;5042193;28;20049;-88
2022/11/21 07:15:59;;;;;;;52.80;25.73;;;-0.90;99.90;;;;;;5057490;28;20128;-86
2022/11/21 07:18:25;;;;;;;47.72;23.80;;;-0.90;99.90;;;;;;5024363;28;20078;-87
2022/11/21 07:20:51;;;;;;;46.28;23.92;;;-1.70;99.90;;;;;;5056986;28;20560;-86
2022/11/21 07:23:16;;;;;;;50.25;25.48;;;-0.50;99.90;;;;;;5074322;28;20040;-85
2022/11/21 07:25:43;;;;;;;50.78;25.27;;;-1.60;99.90;;;;;;5057523;28;20385;-88
2022/11/21 07:28:08;;;;;;;50.15;24.25;;;-1.60;99.90;;;;;;5078494;28;20044;-87
2022/11/21 07:30:35;;;;;;;52.70;25.60;;;-1.30;99.90;;;;;;5058233;28;20071;-88
2022/11/21 07:33:03;;;;;;;52.75;26.52;;;-1.60;99.90;;;;;;5057088;28;20084;-87
2022/11/21 07:35:28;;;;;;;54.25;25.88;;;-1.60;99.90;;;;;;5030591;28;20056;-84
2022/11/21 07:37:55;;;;;;;51.58;27.00;;;-1.60;99.90;;;;;;5074460;28;20044;-83
2022/11/21 07:40:20;;;;;;;52.20;25.75;;;-1.60;99.90;;;;;;5060500;28;20052;-87
2022/11/21 07:42:46;;;;;;;53.10;26.67;;;-1.60;99.90;;;;;;5056061;28;20052;-85
2022/11/21 07:45:12;;;;;;;48.53;25.45;;;-0.50;99.90;;;;;;5038886;28;20480;-86
2022/11/21 07:47:38;;;;;;;47.03;25.27;;;-1.50;99.90;;;;;;5056398;28;20229;-86
2022/11/21 07:50:05;;;;;;;41.75;21.20;;;-1.50;99.90;;;;;;5056520;28;20558;-85
2022/11/21 07:52:30;;;;;;;50.25;25.58;;;-1.40;99.90;;;;;;5056353;28;20067;-86
2022/11/21 07:54:56;;;;;;;49.28;24.35;;;-1.30;99.90;;;;;;5055613;28;20056;-87
2022/11/21 07:57:22;;;;;;;50.22;24.63;;;-1.20;99.90;;;;;;5039570;28;20047;-86
2022/11/21 07:59:48;;;;;;;49.60;25.85;;;-0.50;99.90;;;;;;5039295;28;20082;-86
2022/11/21 08:02:20;;;;;;;50.80;26.15;;;-0.30;99.90;;;;;;5056340;28;20048;-85
2022/11/21 08:04:46;;;;;;;50.45;25.50;;;-1.10;99.90;;;;;;5056097;28;20523;-88
2022/11/21 08:07:15;;;;;;;48.05;26.00;;;-0.40;99.90;;;;;;5042649;28;20451;-87
2022/11/21 08:09:41;;;;;;;51.78;25.92;;;-1.00;99.90;;;;;;5043172;28;20052;-87
2022/11/21 08:12:07;;;;;;;51.13;25.70;;;-0.90;99.90;;;;;;5042412;28;20052;-87
2022/11/21 08:14:33;;;;;;;52.03;26.05;;;-0.60;99.90;;;;;;5059031;28;20036;-86
2022/11/21 08:16:58;;;;;;;55.97;27.77;;;-0.50;99.90;;;;;;5058100;28;20497;-88
2022/11/21 08:19:24;;;;;;;53.72;28.80;;;-0.10;99.90;;;;;;5042372;28;20048;-86
2022/11/21 08:21:50;;;;;;;48.42;26.25;;;-0.30;99.90;;;;;;5041407;28;20048;-86
2022/11/21 08:24:16;;;;;;;46.45;26.25;;;0.70;99.90;;;;;;5042371;28;20040;-85
2022/11/21 08:26:42;;;;;;;45.05;25.63;;;0.00;99.90;;;;;;5057752;28;20056;-88
2022/11/21 08:29:09;;;;;;;50.63;26.38;;;1.30;99.90;;;;;;5041168;28;20109;-88
2022/11/21 08:31:35;;;;;;;49.97;26.05;;;0.40;99.90;;;;;;5057631;28;20657;-88
2022/11/21 08:34:01;;;;;;;45.13;24.92;;;-0.10;99.90;;;;;;5040643;28;20053;-88
2022/11/21 08:36:27;;;;;;;48.40;26.00;;;0.00;99.90;;;;;;5039856;28;20122;-87
2022/11/21 08:38:52;;;;;;;44.25;25.98;;;0.00;99.90;;;;;;5039660;28;20059;-88
2022/11/21 08:44:03;;;;;;;48.03;26.08;;;0.20;99.90;;;;;;5039506;28;20095;-86
2022/11/21 08:46:32;;;;;;;48.65;25.98;;;0.30;99.90;;;;;;5036514;28;20048;-86
2022/11/21 08:48:58;;;;;;;48.05;26.90;;;0.60;99.90;;;;;;5043068;28;20087;-84
2022/11/21 08:51:24;;;;;;;45.85;26.08;;;1.50;99.90;;;;;;5055008;28;20033;-83
2022/11/21 08:53:49;;;;;;;49.50;27.58;;;1.00;99.90;;;;;;5039309;28;20056;-85
2022/11/21 08:56:15;;;;;;;49.33;26.50;;;1.50;99.90;;;;;;5053108;28;20045;-88
2022/11/21 08:58:41;;;;;;;44.80;25.70;;;1.80;99.90;;;;;;5053260;28;20088;-85
2022/11/21 09:01:06;;;;;;;44.20;25.05;;;2.00;99.90;;;;;;5052577;28;20543;-87
2022/11/21 09:03:32;;;;;;;44.65;24.13;;;1.90;99.90;;;;;;5052354;28;20041;-87
2022/11/21 09:05:58;;;;;;;41.95;24.20;;;1.70;99.90;;;;;;5018740;28;20080;-87
2022/11/21 09:08:24;;;;;;;40.80;23.95;;;1.50;99.90;;;;;;5036312;28;20142;-87
2022/11/21 09:10:50;;;;;;;38.25;23.13;;;1.30;99.90;;;;;;5053254;28;20045;-86
2022/11/21 09:13:16;;;;;;;38.47;23.23;;;1.30;99.90;;;;;;5055004;28;20052;-89
2022/11/21 09:18:25;;;;;;;40.50;23.67;;;1.10;99.90;;;;;;5054357;28;20094;-87
2022/11/21 09:20:51;;;;;;;37.53;22.48;;;1.10;99.90;;;;;;5036958;28;20048;-87
2022/11/21 09:23:17;;;;;;;38.13;23.67;;;1.70;99.90;;;;;;5036847;28;20460;-86
2022/11/21 09:25:43;;;;;;;39.03;22.20;;;1.10;99.90;;;;;;5037566;28;20052;-88
2022/11/21 09:28:10;;;;;;;41.72;23.85;;;1.20;99.90;;;;;;5036693;28;20053;-88
2022/11/21 09:30:36;;;;;;;39.80;22.77;;;1.10;99.90;;;;;;5036911;28;20056;-87
2022/11/21 09:33:06;;;;;;;36.85;22.85;;;1.10;99.90;;;;;;5036524;28;20063;-87
2022/11/21 09:35:32;;;;;;;38.53;23.48;;;1.10;99.90;;;;;;5036903;28;20045;-85
2022/11/21 09:37:58;;;;;;;39.20;23.60;;;1.10;99.90;;;;;;5028833;28;20044;-88
2022/11/21 09:40:24;;;;;;;41.72;23.10;;;2.10;99.90;;;;;;5031859;28;20044;-87
2022/11/21 09:42:53;;;;;;;37.25;22.40;;;1.10;99.90;;;;;;5024001;28;20627;-87
2022/11/21 09:45:21;;;;;;;41.33;24.02;;;1.10;99.90;;;;;;5049569;28;20136;-93
2022/11/21 09:47:48;;;;;;;39.35;22.38;;;1.10;99.90;;;;;;5042602;28;20409;-87
2022/11/21 09:50:13;;;;;;;40.63;22.40;;;1.80;99.90;;;;;;5023242;28;20048;-88
2022/11/21 09:52:52;;;;;;;37.50;22.17;;;1.40;99.90;;;;;;5052172;28;20049;-89
2022/11/21 09:55:34;;;;;;;37.78;21.80;;;1.20;99.90;;;;;;5012840;28;20202;-87
2022/11/21 09:58:03;;;;;;;39.55;21.98;;;1.20;99.90;;;;;;5013022;28;20056;-88
2022/11/21 10:00:29;;;;;;;39.72;22.25;;;1.30;99.90;;;;;;5008042;28;20053;-87
2022/11/21 10:02:55;;;;;;;37.67;22.70;;;1.30;99.90;;;;;;5059729;28;20072;-87
2022/11/21 10:05:42;;;;;;;38.67;22.45;;;1.30;99.90;;;;;;5027836;28;20512;-88
2022/11/21 10:08:22;;;;;;;39.55;21.85;;;1.30;99.90;;;;;;5027817;28;20048;-88
2022/11/21 10:10:55;;;;;;;35.40;21.50;;;1.40;99.90;;;;;;5009035;28;20389;-89
2022/11/21 10:13:35;;;;;;;38.88;21.85;;;1.40;99.90;;;;;;5024370;28;20337;-85
2022/11/21 10:16:13;;;;;;;38.95;22.77;;;1.40;99.90;;;;;;5038640;28;20115;-84
2022/11/21 10:18:39;;;;;;;38.40;22.83;;;1.40;99.90;;;;;;5029623;28;20049;-86
2022/11/21 10:21:23;;;;;;;41.65;23.05;;;2.50;99.90;;;;;;5050757;28;20516;-86
2022/11/21 10:23:58;;;;;;;35.75;21.58;;;1.40;99.90;;;;;;5049622;28;20052;-87
2022/11/21 10:26:58;;;;;;;37.10;21.88;;;1.50;99.90;;;;;;5026918;28;20051;-87
2022/11/21 10:29:37;;;;;;;38.35;23.10;;;1.50;99.90;;;;;;5027974;28;20041;-86
2022/11/21 10:32:28;;;;;;;42.08;23.65;;;1.50;99.90;;;;;;5016318;28;20100;-85
2022/11/21 10:34:56;;;;;;;40.67;22.38;;;1.50;99.90;;;;;;5034979;28;20118;-87
2022/11/21 10:37:36;;;;;;;38.55;22.25;;;1.50;99.90;;;;;;5028240;28;20041;-86
2022/11/21 10:40:36;;;;;;;40.55;22.13;;;2.90;99.90;;;;;;5051005;28;20034;-87
2022/11/21 10:46:30;;;;;;;35.90;20.50;;;1.70;99.90;;;;;;5051686;28;20559;-86
2022/11/21 10:49:00;;;;;;;37.22;21.80;;;3.20;99.90;;;;;;5032254;28;20041;-83
2022/11/21 10:51:46;;;;;;;35.67;20.88;;;1.80;99.90;;;;;;5046671;28;20048;-86
2022/11/21 10:54:31;;;;;;;34.42;20.80;;;1.80;99.90;;;;;;5060537;28;20068;-87
2022/11/21 10:57:12;;;;;;;;;;;1.90;99.90;;;;;;5037926;28;20052;-87
2022/11/21 10:59:38;;;;;;;30.88;18.73;;;2.00;99.90;;;;;;5043241;28;19929;-84
2022/11/21 11:02:13;;;;;;;35.22;20.63;;;2.10;99.90;;;;;;5023236;28;20048;-85
2022/11/21 11:04:39;;;;;;;32.10;19.20;;;3.40;99.90;;;;;;5031243;28;20083;-86
2022/11/21 11:07:20;;;;;;;31.73;18.60;;;2.90;99.90;;;;;;5025659;28;20393;-87
2022/11/21 11:09:46;;;;;;;31.60;18.63;;;3.60;99.90;;;;;;5035595;28;20057;-85
2022/11/21 11:13:32;;;;;;;27.58;17.73;;;2.50;99.90;;;;;;5032665;28;20160;-87
2022/11/21 11:15:22;;;;;;;27.23;17.52;;;3.30;99.90;;;;;;5027250;28;20037;-87
2022/11/21 11:17:55;;;;;;;27.25;17.52;;;2.50;99.90;;;;;;5047774;28;20110;-87
2022/11/21 11:20:36;;;;;;;29.65;18.05;;;1.40;99.90;;;;;;5043166;28;20053;-87
2022/11/21 11:23:25;;;;;;;27.48;17.33;;;2.70;99.90;;;;;;5022837;28;20049;-85
2022/11/21 11:25:56;;;;;;;29.58;17.35;;;2.80;99.90;;;;;;5026986;28;20053;-85
2022/11/21 11:28:26;;;;;;;30.58;18.10;;;3.00;99.90;;;;;;5046736;28;20057;-86
2022/11/21 11:30:54;;;;;;;30.50;17.67;;;3.00;99.90;;;;;;5038388;28;20057;-85
2022/11/21 11:33:30;;;;;;;28.63;17.05;;;4.10;99.90;;;;;;5033243;28;20097;-85
2022/11/21 11:36:05;;;;;;;32.35;19.88;;;3.00;99.90;;;;;;5024232;28;20409;-84
2022/11/21 11:38:30;;;;;;;;;;;2.90;99.90;;;;;;5035524;28;20095;-83
2022/11/21 11:40:57;;;;;;;33.45;19.48;;;3.90;99.90;;;;;;5019525;28;20024;-83
2022/11/21 11:52:47;;;;;;;36.53;21.17;;;2.70;99.90;;;;;;5049827;28;20045;-84
2022/11/21 11:55:19;;;;;;;35.75;20.98;;;2.70;99.90;;;;;;5020490;28;20132;-85
2022/11/21 11:57:45;;;;;;;36.35;21.65;;;2.70;99.90;;;;;;5017043;28;20107;-83
2022/11/21 12:00:32;;;;;;;36.15;19.05;;;3.00;99.90;;;;;;5059423;28;20044;-84
2022/11/21 12:03:18;;;;;;;30.95;19.30;;;3.00;99.90;;;;;;5067116;28;20405;-85
2022/11/21 12:05:55;;;;;;;34.95;19.75;;;4.00;99.90;;;;;;5048805;28;20049;-85
2022/11/21 12:08:29;;;;;;;36.88;20.17;;;3.10;99.90;;;;;;5024980;28;20452;-85
2022/11/21 12:13:43;;;;;;;35.78;21.80;;;2.80;99.90;;;;;;5018667;28;20406;-85
2022/11/21 12:16:11;;;;;;;38.25;21.55;;;2.80;99.90;;;;;;5024628;28;20074;-84
2022/11/21 12:18:55;;;;;;;33.47;20.33;;;2.80;99.90;;;;;;5026998;28;20083;-83
2022/11/21 12:21:22;;;;;;;38.70;20.53;;;2.80;99.90;;;;;;5014819;28;20049;-84
2022/11/21 12:23:55;;;;;;;33.75;20.45;;;2.80;99.90;;;;;;5043892;28;20054;-85
2022/11/21 12:26:39;;;;;;;33.38;19.63;;;2.80;99.90;;;;;;5033491;28;20048;-83
2022/11/21 12:29:30;;;;;;;31.52;18.23;;;2.90;99.90;;;;;;5047840;28;20072;-80
2022/11/21 12:32:09;;;;;;;30.88;17.83;;;2.90;99.90;;;;;;5030333;28;20107;-83
2022/11/21 12:34:56;;;;;;;30.25;19.05;;;2.90;99.90;;;;;;5027140;28;20045;-85
2022/11/21 12:37:46;;;;;;;29.55;17.75;;;2.90;99.90;;;;;;5043741;28;20474;-84
2022/11/21 12:40:42;;;;;;;29.33;16.63;;;2.90;99.90;;;;;;5046538;28;20057;-84
2022/11/21 12:43:39;;;;;;;28.95;17.27;;;2.90;99.90;;;;;;5044195;28;20080;-84
2022/11/21 12:46:08;;;;;;;27.58;15.48;;;2.90;99.90;;;;;;5057171;28;20046;-83
2022/11/21 12:54:51;;;;;;;26.23;15.88;;;3.30;99.90;;;;;;5024053;28;20049;-87
2022/11/21 12:57:20;;;;;;;25.10;14.98;;;3.10;99.90;;;;;;5048579;28;20068;-84
2022/11/21 13:00:10;;;;;;;23.17;14.25;;;3.10;99.90;;;;;;5048835;28;20057;-84
2022/11/21 13:02:55;;;;;;;24.15;15.00;;;3.10;99.90;;;;;;5049628;28;20438;-85
2022/11/21 13:05:29;;;;;;;23.80;14.30;;;3.00;99.90;;;;;;5049485;28;20444;-84
2022/11/21 13:08:35;;;;;;;25.50;14.93;;;3.10;99.90;;;;;;5033147;28;20559;-84
2022/11/21 13:14:19;;;;;;;22.67;14.80;;;3.10;99.90;;;;;;5067135;28;20049;-85
2022/11/21 13:16:49;;;;;;;26.02;14.55;;;3.10;99.90;;;;;;5064697;28;21026;-84
2022/11/21 13:19:25;;;;;;;23.50;14.73;;;3.20;99.90;;;;;;5026983;28;20102;-85
2022/11/21 13:21:53;;;;;;;23.38;14.80;;;3.20;99.90;;;;;;5031872;28;20044;-84